This is the latest recevied weather packets stored in our database for station/object DH5DY. If no packets are shown the sender has not sent any weather packets the latest 10 day(s).
| Time | Temp. | Humidity | Pressure | Rain* | Wind** | Luminosity | Snow |
|---|---|---|---|---|---|---|---|
| 1788372911 | 16.67° C | 74% | 1019.1 hPa | 0 mm | - | 0 W/m² | - |
| 1788359414 | 20° C | 55% | 1019.2 hPa | 0 mm | - | 315 W/m² | - |
| 1788357613 | 20° C | 56% | 1019.2 hPa | 0 mm | - | 615 W/m² | - |
| 1788351312 | 18.89° C | 63% | 1019.2 hPa | 0 mm | - | 661 W/m² | - |
| 1788348613 | 18.33° C | 66% | 1019.3 hPa | 0 mm | - | 485 W/m² | - |
| 1788345911 | 18.33° C | 69% | 1019.4 hPa | 0 mm | - | 490 W/m² | - |
| 1788337815 | 15.56° C | 87% | 1019.3 hPa | 0 mm | - | 111 W/m² | - |
| 1788327913 | 10.56° C | 95% | 1018.7 hPa | 0 mm | - | 28 W/m² | - |
| 1788313510 | 9.44° C | 94% | 1019.3 hPa | 0 mm | - | 0 W/m² | - |
| 1788284712 | 18.33° C | 76% | 1018.8 hPa | 0 mm | - | 23 W/m² | - |
| 1788266713 | 19.44° C | 72% | 1018.5 hPa | 0 mm | - | 40 W/m² | - |
| 1788259512 | 17.22° C | 82% | 1019.2 hPa | 0 mm | - | 171 W/m² | - |
| 1788254112 | 15.56° C | 87% | 1019.1 hPa | 0 mm | - | 155 W/m² | - |
| 1788251411 | 15° C | 89% | 1019 hPa | 0.25 mm | - | 111 W/m² | - |
| 1788234312 | 13.89° C | 94% | 1017 hPa | 0 mm | - | 0 W/m² | - |
| 1788227112 | 13.33° C | 94% | 1016.7 hPa | 0 mm | - | 0 W/m² | - |
| 1788217213 | 13.33° C | 93% | 1016.5 hPa | 0 mm | - | 0 W/m² | - |
| 1788215413 | 13.33° C | 93% | 1016.5 hPa | 0 mm | - | 0 W/m² | - |
| 1788213613 | 13.89° C | 92% | 1016.5 hPa | 0 mm | - | 0 W/m² | - |
| 1788209112 | 13.89° C | 93% | 1015.6 hPa | 0 mm | - | 0 W/m² | - |
| 1788201916 | 14.44° C | 91% | 1013.9 hPa | 0 mm | - | 0 W/m² | - |
| 1788192913 | 15.56° C | 90% | 1012.1 hPa | 1.52 mm | - | 246 W/m² | - |
| 1788182111 | 20° C | 69% | 1010.5 hPa | 0 mm | - | 318 W/m² | - |
| 1788161413 | 16.67° C | 89% | 1010.4 hPa | 0 mm | - | 98 W/m² | - |
| 1788139815 | 13.89° C | 92% | 1009.8 hPa | 0.25 mm | - | 0 W/m² | - |
* Rain latest hour (hover to see other rain measurements)
** Current wind speed in m/s (hover to see current wind gust speed)